Time;durP1;ratioP1;P1;durP2;ratioP2;P2;SDS_P1;SDS_P2;PMS_P1;PMS_P2;Temp;Humidity;BMP_temperature;BMP_pressure;BME280_temperature;BME280_humidity;BME280_pressure;Samples;Min_cycle;Max_cycle;Signal;HPM_P1;HPM_P2
2021/03/21 00:00:12;;;;;;;12.70;7.47;;;6.30;98.10;;;;;;5029552;28;20368;-80
2021/03/21 00:02:38;;;;;;;12.93;7.63;;;6.30;98.10;;;;;;5045501;28;20651;-77
2021/03/21 00:05:04;;;;;;;17.20;9.60;;;6.40;98.10;;;;;;5022415;28;20045;-78
2021/03/21 00:07:30;;;;;;;15.03;9.00;;;6.40;98.00;;;;;;5042777;28;20063;-77
2021/03/21 00:09:56;;;;;;;13.00;7.30;;;6.50;98.00;;;;;;5064558;28;20106;-77
2021/03/21 00:12:22;;;;;;;15.53;8.63;;;6.50;98.00;;;;;;5008017;28;20087;-77
2021/03/21 00:14:48;;;;;;;15.70;8.50;;;6.40;98.20;;;;;;5044889;28;20033;-79
2021/03/21 00:17:16;;;;;;;18.17;9.80;;;6.40;97.90;;;;;;5047300;28;20099;-77
2021/03/21 00:19:42;;;;;;;15.43;8.83;;;6.50;97.80;;;;;;5047584;28;20083;-77
2021/03/21 00:22:08;;;;;;;18.53;10.40;;;6.50;97.80;;;;;;5046916;28;20719;-78
2021/03/21 00:24:34;;;;;;;17.43;9.67;;;6.50;97.70;;;;;;5044542;28;20037;-78
2021/03/21 00:26:59;;;;;;;19.90;10.63;;;6.60;97.60;;;;;;5063577;28;20378;-77
2021/03/21 00:29:25;;;;;;;16.60;9.17;;;6.60;97.50;;;;;;5057819;28;20520;-78
2021/03/21 00:31:51;;;;;;;19.97;10.07;;;6.50;97.60;;;;;;5048507;28;20437;-79
2021/03/21 00:34:17;;;;;;;19.20;10.43;;;6.50;97.70;;;;;;5050281;28;20036;-79
2021/03/21 00:36:46;;;;;;;18.87;9.30;;;6.50;97.70;;;;;;5061678;28;20036;-78
2021/03/21 00:39:12;;;;;;;21.37;10.93;;;6.50;97.70;;;;;;5041363;28;20511;-78
2021/03/21 00:41:38;;;;;;;20.60;9.87;;;6.50;97.70;;;;;;5035741;28;20044;-77
2021/03/21 00:44:04;;;;;;;16.93;9.17;;;6.50;97.60;;;;;;5039377;28;20041;-78
2021/03/21 00:46:31;;;;;;;19.70;9.90;;;6.50;97.60;;;;;;5044733;28;20037;-79
2021/03/21 00:48:56;;;;;;;20.90;10.80;;;6.60;97.40;;;;;;5038904;28;20354;-79
2021/03/21 00:51:22;;;;;;;15.10;7.83;;;6.60;97.40;;;;;;5038467;28;20115;-72
2021/03/21 00:53:49;;;;;;;18.23;9.97;;;6.60;97.40;;;;;;5040193;28;20499;-72
2021/03/21 00:56:27;;;;;;;18.20;9.27;;;6.60;97.40;;;;;;5036271;28;20053;-72
2021/03/21 00:58:57;;;;;;;17.23;9.07;;;6.60;97.40;;;;;;5039862;28;20045;-72
2021/03/21 01:01:23;;;;;;;14.68;9.00;;;6.60;97.20;;;;;;5043527;28;20112;-74
2021/03/21 01:03:49;;;;;;;14.83;9.07;;;6.60;97.20;;;;;;5038271;28;20128;-72
2021/03/21 01:06:15;;;;;;;16.83;8.10;;;6.60;97.20;;;;;;5044336;28;20120;-73
2021/03/21 01:08:41;;;;;;;18.00;9.87;;;6.60;97.20;;;;;;5043274;28;20033;-72
2021/03/21 01:11:11;;;;;;;22.10;9.73;;;6.60;97.20;;;;;;5039242;28;20045;-73
2021/03/21 01:13:38;;;;;;;16.90;9.52;;;6.60;97.20;;;;;;5041032;28;20148;-73
2021/03/21 01:16:07;;;;;;;19.57;9.93;;;6.60;97.20;;;;;;5038431;28;20158;-73
2021/03/21 01:18:33;;;;;;;17.57;10.40;;;6.60;97.20;;;;;;5044773;28;20086;-79
2021/03/21 01:21:01;;;;;;;20.93;9.30;;;6.70;97.30;;;;;;5024324;28;20044;-72
2021/03/21 01:23:27;;;;;;;22.83;9.63;;;6.70;97.20;;;;;;5027006;28;20478;-73
2021/03/21 01:25:53;;;;;;;15.63;8.73;;;6.70;97.00;;;;;;5022023;28;20094;-72
2021/03/21 01:28:33;;;;;;;20.07;10.67;;;6.70;97.20;;;;;;5047982;28;20098;-73
2021/03/21 01:31:02;;;;;;;24.90;11.50;;;6.70;97.00;;;;;;5036644;28;20476;-72
2021/03/21 01:33:33;;;;;;;23.63;9.60;;;6.70;97.00;;;;;;5046550;28;20047;-72
2021/03/21 01:36:00;;;;;;;20.73;9.87;;;6.70;97.00;;;;;;5041545;28;20036;-72
2021/03/21 01:38:27;;;;;;;20.83;10.63;;;6.70;97.10;;;;;;5023456;28;20045;-73
2021/03/21 01:40:57;;;;;;;22.53;10.07;;;6.70;97.20;;;;;;5038575;28;20048;-72
2021/03/21 01:43:34;;;;;;;27.00;10.40;;;6.70;97.20;;;;;;5061570;28;20105;-73
2021/03/21 01:46:00;;;;;;;21.27;10.73;;;6.60;97.20;;;;;;5063308;28;20101;-72
2021/03/21 01:48:29;;;;;;;22.60;9.33;;;6.60;97.30;;;;;;5048701;28;20047;-72
2021/03/21 01:50:58;;;;;;;18.63;9.33;;;6.70;97.30;;;;;;5056823;28;20037;-72
2021/03/21 01:53:28;;;;;;;25.53;9.97;;;6.60;97.40;;;;;;5065465;28;20040;-72
2021/03/21 01:55:56;;;;;;;27.10;11.13;;;6.60;97.60;;;;;;5058094;28;20317;-72
2021/03/21 01:58:23;;;;;;;23.67;10.87;;;6.50;97.60;;;;;;5032658;28;20033;-72
2021/03/21 02:00:52;;;;;;;21.07;9.70;;;6.60;97.80;;;;;;5044257;28;20383;-72
2021/03/21 02:03:21;;;;;;;22.00;10.33;;;6.60;97.80;;;;;;5058835;28;20036;-73
2021/03/21 02:05:49;;;;;;;24.20;11.27;;;6.50;97.80;;;;;;5029261;28;20040;-72
2021/03/21 02:08:23;;;;;;;23.97;10.97;;;6.50;97.80;;;;;;5059714;28;20044;-73
2021/03/21 02:11:14;;;;;;;21.93;8.50;;;6.60;97.90;;;;;;5058440;28;20113;-72
2021/03/21 02:14:09;;;;;;;22.17;10.83;;;6.60;98.00;;;;;;5047802;28;20437;-72
2021/03/21 02:16:45;;;;;;;20.00;9.47;;;6.60;97.90;;;;;;5021427;28;20045;-73
2021/03/21 02:19:36;;;;;;;18.07;9.43;;;6.50;97.90;;;;;;5036338;28;20044;-72
2021/03/21 02:22:05;;;;;;;24.20;10.75;;;6.50;98.00;;;;;;5064452;28;20483;-73
2021/03/21 02:25:07;;;;;;;18.80;9.10;;;6.50;98.00;;;;;;5062050;28;20047;-73
2021/03/21 02:28:00;;;;;;;17.53;8.80;;;6.50;98.00;;;;;;5043952;28;20036;-71
2021/03/21 02:30:40;;;;;;;17.23;8.63;;;6.40;98.10;;;;;;5039931;28;20036;-73
2021/03/21 02:33:17;;;;;;;20.95;8.88;;;6.40;98.30;;;;;;5061514;28;20043;-73
2021/03/21 02:35:45;;;;;;;19.50;8.93;;;6.40;98.00;;;;;;5059903;28;20032;-73
2021/03/21 02:38:35;;;;;;;21.30;8.93;;;6.40;98.00;;;;;;5049984;28;20444;-73
2021/03/21 02:41:12;;;;;;;24.02;10.95;;;6.40;97.90;;;;;;5062573;28;20048;-75
2021/03/21 02:43:54;;;;;;;24.07;9.77;;;6.40;97.80;;;;;;5044815;28;20041;-75
2021/03/21 02:46:24;;;;;;;22.23;9.13;;;6.40;97.80;;;;;;5060760;28;20070;-74
2021/03/21 02:49:15;;;;;;;20.80;7.95;;;6.40;97.80;;;;;;5059933;28;20036;-74
2021/03/21 02:51:45;;;;;;;20.30;7.80;;;6.40;97.70;;;;;;5058242;28;20097;-72
2021/03/21 02:54:16;;;;;;;23.33;8.63;;;6.40;97.70;;;;;;5057243;28;20040;-72
2021/03/21 02:56:48;;;;;;;16.03;7.77;;;6.40;97.40;;;;;;5059943;28;20047;-73
2021/03/21 02:59:18;;;;;;;17.50;7.43;;;6.40;97.30;;;;;;5060217;28;20044;-72
2021/03/21 03:01:47;;;;;;;19.15;6.82;;;6.40;97.30;;;;;;5054630;28;20061;-73
2021/03/21 03:04:17;;;;;;;17.07;7.20;;;6.40;97.20;;;;;;5051789;28;20132;-73
2021/03/21 03:06:51;;;;;;;18.83;7.43;;;6.50;97.00;;;;;;5041004;28;20041;-72
2021/03/21 03:09:25;;;;;;;16.53;7.03;;;6.60;97.00;;;;;;5060355;28;20528;-73
2021/03/21 03:11:56;;;;;;;13.93;5.67;;;6.40;97.00;;;;;;5063935;28;20037;-72
2021/03/21 03:14:35;;;;;;;18.17;6.53;;;6.40;96.90;;;;;;5047336;28;20044;-73
2021/03/21 03:17:01;;;;;;;13.97;6.20;;;6.50;96.70;;;;;;5061577;28;20047;-72
2021/03/21 03:19:39;;;;;;;16.63;6.53;;;6.40;96.80;;;;;;5065762;28;20322;-72
2021/03/21 03:22:32;;;;;;;13.83;5.47;;;6.50;96.80;;;;;;5060248;28;20443;-73
2021/03/21 03:25:21;;;;;;;24.37;6.70;;;6.50;96.50;;;;;;5042405;28;20040;-73
2021/03/21 03:28:09;;;;;;;15.77;5.70;;;6.50;96.60;;;;;;5049976;28;20082;-73
2021/03/21 03:30:49;;;;;;;17.33;7.03;;;6.40;96.80;;;;;;5065050;28;20032;-73
2021/03/21 03:33:16;;;;;;;24.67;6.90;;;6.40;96.80;;;;;;5063593;28;20479;-73
2021/03/21 03:35:42;;;;;;;22.83;6.37;;;6.40;96.90;;;;;;5023583;28;20075;-73
2021/03/21 03:38:10;;;;;;;18.20;6.47;;;6.40;96.90;;;;;;5046836;28;20351;-74
2021/03/21 03:40:42;;;;;;;16.13;6.03;;;6.40;96.80;;;;;;5064705;28;20056;-74
2021/03/21 03:43:36;;;;;;;19.53;5.50;;;6.40;96.80;;;;;;5056343;28;20804;-73
2021/03/21 03:46:31;;;;;;;23.23;6.07;;;6.40;96.90;;;;;;5058505;28;20044;-74
2021/03/21 03:49:20;;;;;;;20.47;5.03;;;6.40;96.90;;;;;;5044671;28;20083;-74
2021/03/21 03:52:13;;;;;;;18.90;5.30;;;6.40;97.00;;;;;;5047362;28;20059;-74
2021/03/21 03:54:58;;;;;;;18.07;4.20;;;6.40;97.00;;;;;;5064210;28;20041;-74
2021/03/21 03:57:39;;;;;;;18.27;4.83;;;6.30;97.00;;;;;;5062974;28;20098;-73
2021/03/21 04:00:19;;;;;;;13.97;4.30;;;6.30;96.80;;;;;;5061439;28;20037;-74
2021/03/21 04:03:10;;;;;;;17.73;4.65;;;6.40;96.90;;;;;;5046518;28;20064;-75
2021/03/21 04:05:42;;;;;;;15.25;3.70;;;6.40;96.90;;;;;;5065874;28;20115;-74
2021/03/21 04:08:19;;;;;;;14.00;3.87;;;6.40;96.90;;;;;;5031842;28;20324;-75
2021/03/21 04:10:57;;;;;;;13.27;3.47;;;6.30;96.80;;;;;;5059692;28;20044;-74
2021/03/21 04:13:31;;;;;;;18.13;4.50;;;6.30;97.00;;;;;;5042257;28;20086;-74
2021/03/21 04:15:59;;;;;;;21.53;3.70;;;6.30;97.00;;;;;;5062607;28;20489;-74
2021/03/21 04:18:46;;;;;;;21.63;4.10;;;6.40;96.90;;;;;;5066075;28;20040;-74
2021/03/21 04:21:41;;;;;;;17.37;4.43;;;6.40;97.00;;;;;;5064314;28;20037;-73
2021/03/21 04:24:13;;;;;;;19.97;3.90;;;6.40;96.90;;;;;;4987785;28;20061;-74
2021/03/21 04:26:57;;;;;;;16.03;3.33;;;6.40;96.90;;;;;;5064256;28;20037;-74
2021/03/21 04:29:44;;;;;;;17.23;3.30;;;6.40;96.70;;;;;;5041893;28;20396;-74
2021/03/21 04:32:15;;;;;;;21.73;3.93;;;6.40;96.70;;;;;;5062403;28;20044;-80
2021/03/21 04:34:46;;;;;;;15.00;2.60;;;6.40;96.50;;;;;;5041914;28;20044;-78
2021/03/21 04:37:12;;;;;;;19.45;3.25;;;6.40;96.60;;;;;;5066270;28;20043;-78
2021/03/21 04:39:41;;;;;;;15.23;2.90;;;6.30;96.70;;;;;;5045186;28;20057;-80
2021/03/21 04:42:43;;;;;;;14.50;2.63;;;6.50;96.00;;;;;;5066598;28;20750;-79
2021/03/21 04:45:21;;;;;;;15.97;2.30;;;6.40;95.90;;;;;;5034901;28;20049;-80
2021/03/21 04:48:01;;;;;;;17.83;3.03;;;6.40;96.00;;;;;;5066336;28;20040;-79
2021/03/21 04:50:28;;;;;;;18.93;3.17;;;6.30;95.90;;;;;;5059672;28;20048;-79
2021/03/21 04:53:01;;;;;;;19.97;2.50;;;6.30;95.90;;;;;;5064174;28;20623;-79
2021/03/21 04:55:39;;;;;;;19.20;4.40;;;6.30;96.20;;;;;;5046754;28;20094;-78
2021/03/21 04:58:23;;;;;;;14.03;1.87;;;6.40;95.40;;;;;;5049221;28;20384;-79
2021/03/21 05:00:49;;;;;;;15.67;1.80;;;6.40;94.30;;;;;;5063058;28;20032;-79
2021/03/21 05:03:25;;;;;;;20.03;2.40;;;6.40;93.90;;;;;;5081224;28;20043;-78
2021/03/21 05:06:10;;;;;;;13.90;1.80;;;6.40;94.20;;;;;;5065532;28;20487;-80
2021/03/21 05:08:46;;;;;;;19.37;2.73;;;6.30;94.40;;;;;;5059075;28;20037;-78
2021/03/21 05:11:14;;;;;;;13.97;2.43;;;6.20;94.90;;;;;;5065065;28;20044;-79
2021/03/21 05:13:56;;;;;;;15.13;2.17;;;6.10;95.10;;;;;;5066964;28;20399;-73
2021/03/21 05:16:46;;;;;;;19.00;2.60;;;6.10;95.00;;;;;;5063590;28;20499;-73
2021/03/21 05:19:21;;;;;;;22.40;2.80;;;6.10;94.70;;;;;;5063846;28;20076;-73
2021/03/21 05:21:54;;;;;;;17.77;2.20;;;6.20;94.50;;;;;;5048274;28;20047;-73
2021/03/21 05:24:38;;;;;;;22.27;2.57;;;6.20;94.30;;;;;;5047426;28;20044;-73
2021/03/21 05:27:07;;;;;;;18.30;2.43;;;6.20;94.30;;;;;;5059845;28;20497;-73
2021/03/21 05:30:00;;;;;;;11.53;2.60;;;6.10;94.30;;;;;;5041657;28;20127;-73
2021/03/21 05:32:27;;;;;;;15.20;2.73;;;6.10;93.90;;;;;;5060463;28;20085;-73
2021/03/21 05:34:57;;;;;;;14.53;2.73;;;6.20;94.00;;;;;;5037960;28;20037;-73
2021/03/21 05:37:29;;;;;;;20.30;2.57;;;6.10;93.90;;;;;;5048714;28;20384;-74
2021/03/21 05:40:09;;;;;;;16.50;2.70;;;6.10;94.00;;;;;;5046387;28;20036;-73
2021/03/21 05:42:57;;;;;;;20.02;2.65;;;6.10;94.00;;;;;;5065295;28;20399;-74
2021/03/21 05:45:47;;;;;;;14.30;3.00;;;6.10;93.70;;;;;;5061171;28;20037;-74
2021/03/21 05:48:26;;;;;;;16.02;2.22;;;6.10;93.30;;;;;;5025173;28;20048;-74
2021/03/21 05:51:00;;;;;;;18.80;2.77;;;6.20;92.70;;;;;;5063507;28;20040;-73
2021/03/21 05:53:58;;;;;;;19.27;2.50;;;6.30;92.00;;;;;;5061725;28;20068;-75
2021/03/21 05:56:45;;;;;;;20.13;2.40;;;6.40;91.60;;;;;;5011016;28;20445;-74
2021/03/21 05:59:49;;;;;;;22.33;2.90;;;6.30;91.80;;;;;;5062453;28;20527;-74
2021/03/21 06:02:33;;;;;;;16.40;3.07;;;6.30;92.00;;;;;;5061924;28;20060;-74
2021/03/21 06:05:39;;;;;;;13.03;2.30;;;6.30;92.30;;;;;;5061932;28;20064;-74
2021/03/21 06:08:30;;;;;;;18.23;3.43;;;6.30;92.00;;;;;;5058829;28;20900;-73
2021/03/21 06:11:20;;;;;;;22.13;3.10;;;6.30;92.00;;;;;;5061110;28;20032;-74
2021/03/21 06:13:46;;;;;;;26.37;4.67;;;6.40;90.80;;;;;;5043958;28;20396;-74
2021/03/21 06:16:33;;;;;;;24.80;3.77;;;6.50;90.20;;;;;;5062546;28;20044;-73
2021/03/21 06:19:32;;;;;;;22.63;3.80;;;6.40;90.60;;;;;;5042686;28;20040;-74
2021/03/21 06:22:16;;;;;;;28.07;4.53;;;6.40;90.00;;;;;;5028846;28;20567;-74
2021/03/21 06:25:20;;;;;;;30.03;4.70;;;6.40;90.30;;;;;;5061478;28;20043;-74
2021/03/21 06:28:06;;;;;;;19.53;3.60;;;6.30;90.80;;;;;;4991998;28;20062;-74
2021/03/21 06:30:47;;;;;;;27.63;4.67;;;6.30;91.20;;;;;;5059908;28;20036;-74
2021/03/21 06:33:31;;;;;;;;;;;6.30;90.40;;;;;;5059195;28;21248;-74
2021/03/21 06:36:23;;;;;;;25.67;4.27;;;6.30;90.40;;;;;;5061975;28;19920;-74
2021/03/21 06:39:01;;;;;;;24.03;3.87;;;6.30;90.50;;;;;;5063769;28;20033;-74
2021/03/21 06:41:45;;;;;;;22.40;4.00;;;6.30;90.40;;;;;;5043565;28;20049;-74
2021/03/21 06:44:42;;;;;;;23.60;3.37;;;6.30;90.30;;;;;;5065539;28;20479;-73
2021/03/21 06:47:14;;;;;;;28.60;4.60;;;6.40;90.10;;;;;;5081245;28;20132;-73
2021/03/21 06:50:13;;;;;;;27.47;5.53;;;6.30;90.30;;;;;;5065847;28;20048;-75
2021/03/21 06:53:09;;;;;;;30.93;5.17;;;6.30;89.90;;;;;;5050012;28;20394;-74
2021/03/21 06:55:41;;;;;;;27.57;4.60;;;6.40;90.00;;;;;;5064333;28;20597;-74
2021/03/21 06:58:32;;;;;;;24.63;5.10;;;6.30;90.00;;;;;;5064854;28;20040;-74
2021/03/21 07:01:22;;;;;;;26.98;5.45;;;6.40;87.50;;;;;;5062849;28;20040;-75
2021/03/21 07:04:10;;;;;;;30.88;5.32;;;6.50;85.90;;;;;;5064068;28;20033;-74
2021/03/21 07:07:13;;;;;;;26.53;4.97;;;6.50;85.80;;;;;;5047542;28;20055;-74
2021/03/21 07:10:15;;;;;;;37.23;6.97;;;6.40;85.20;;;;;;5066833;28;20695;-73
2021/03/21 07:12:59;;;;;;;33.17;5.03;;;6.40;84.40;;;;;;5010553;28;20487;-73
2021/03/21 07:15:44;;;;;;;35.07;4.87;;;6.40;85.80;;;;;;5061911;28;20455;-74
2021/03/21 07:18:38;;;;;;;26.23;5.07;;;6.40;84.90;;;;;;5065303;28;20044;-74
2021/03/21 07:21:41;;;;;;;23.87;4.77;;;6.40;85.10;;;;;;5062899;28;20040;-74
2021/03/21 07:24:25;;;;;;;31.23;4.80;;;6.40;84.90;;;;;;5045637;28;20102;-74
2021/03/21 07:26:57;;;;;;;30.77;5.90;;;6.30;85.50;;;;;;5063774;28;20032;-74
2021/03/21 07:29:47;;;;;;;24.60;5.53;;;6.30;85.00;;;;;;5061422;28;20098;-74
2021/03/21 07:32:47;;;;;;;26.02;4.80;;;6.50;82.90;;;;;;5064357;28;20041;-74
2021/03/21 07:36:24;;;;;;;35.55;5.13;;;6.50;84.60;;;;;;5049945;28;20089;-73
2021/03/21 07:39:02;;;;;;;30.53;5.53;;;6.50;83.80;;;;;;4952922;28;20057;-72
2021/03/21 07:41:34;;;;;;;30.97;4.77;;;6.60;84.30;;;;;;4977588;28;20062;-74
2021/03/21 07:44:28;;;;;;;37.00;6.33;;;6.50;85.10;;;;;;5016387;28;20136;-73
2021/03/21 07:46:53;;;;;;;40.10;5.83;;;6.50;85.60;;;;;;5033967;28;20037;-72
2021/03/21 07:49:38;;;;;;;29.83;6.50;;;6.60;86.50;;;;;;5044589;28;20496;-73
2021/03/21 07:52:27;;;;;;;33.53;5.07;;;6.60;85.50;;;;;;5047228;28;20106;-73
2021/03/21 07:55:12;;;;;;;31.83;5.80;;;6.60;85.20;;;;;;5027884;28;20041;-73
2021/03/21 07:57:41;;;;;;;28.50;6.00;;;6.60;86.50;;;;;;5025878;28;20041;-73
2021/03/21 08:00:10;;;;;;;34.23;6.03;;;6.70;85.00;;;;;;5039017;28;20258;-73
2021/03/21 08:02:36;;;;;;;30.57;6.20;;;6.80;83.80;;;;;;5024036;28;20543;-74
2021/03/21 08:05:13;;;;;;;30.53;5.50;;;6.80;83.70;;;;;;5028883;28;20041;-73
2021/03/21 08:07:42;;;;;;;30.27;5.67;;;6.80;84.20;;;;;;5048380;28;20068;-73
2021/03/21 08:10:20;;;;;;;34.30;5.47;;;6.80;84.70;;;;;;5046893;28;20382;-73
2021/03/21 08:12:56;;;;;;;28.70;5.63;;;6.80;85.20;;;;;;5024696;28;20094;-74
2021/03/21 08:15:25;;;;;;;28.70;4.60;;;6.80;84.70;;;;;;5028465;28;20059;-73
2021/03/21 08:18:00;;;;;;;31.50;6.20;;;7.00;81.60;;;;;;5052074;28;20364;-73
2021/03/21 08:20:31;;;;;;;30.80;6.50;;;7.10;80.60;;;;;;5051174;28;20483;-74
2021/03/21 08:23:22;;;;;;;25.67;5.40;;;7.10;79.80;;;;;;5030927;28;20045;-73
2021/03/21 08:25:53;;;;;;;37.95;5.75;;;7.20;78.20;;;;;;5046182;28;20515;-74
2021/03/21 08:28:22;;;;;;;34.63;5.90;;;7.20;76.80;;;;;;5024077;28;20045;-74
2021/03/21 08:30:54;;;;;;;24.73;5.43;;;7.20;76.90;;;;;;5015325;28;20135;-74
2021/03/21 08:33:41;;;;;;;37.37;5.90;;;7.10;79.40;;;;;;5049250;28;20041;-73
2021/03/21 08:36:15;;;;;;;32.60;4.97;;;7.20;78.20;;;;;;5044164;28;20046;-74
2021/03/21 08:39:11;;;;;;;31.70;6.87;;;7.20;79.20;;;;;;5028422;28;20052;-76
2021/03/21 08:41:51;;;;;;;31.57;5.27;;;7.20;77.80;;;;;;5009115;28;20063;-74
2021/03/21 08:44:43;;;;;;;33.67;5.68;;;7.30;78.50;;;;;;5045419;28;20122;-74
2021/03/21 08:47:20;;;;;;;39.10;7.13;;;7.30;78.70;;;;;;5052112;28;20032;-74
2021/03/21 08:49:50;;;;;;;32.43;7.37;;;7.30;78.80;;;;;;5029071;28;20040;-74
2021/03/21 08:52:45;;;;;;;27.83;5.27;;;7.30;78.20;;;;;;5027111;28;20051;-74
2021/03/21 08:55:29;;;;;;;31.13;5.30;;;7.30;79.10;;;;;;5046325;28;20501;-73
2021/03/21 08:57:54;;;;;;;34.60;6.17;;;7.20;78.90;;;;;;5045676;28;20049;-74
2021/03/21 09:00:23;;;;;;;32.20;6.03;;;7.30;77.80;;;;;;5027241;28;20427;-74
2021/03/21 09:02:50;;;;;;;36.17;8.53;;;7.30;78.60;;;;;;5040494;28;20086;-75
2021/03/21 09:05:18;;;;;;;32.27;6.17;;;7.30;78.10;;;;;;5044169;28;20071;-73
2021/03/21 09:08:07;;;;;;;28.50;5.73;;;7.20;78.50;;;;;;5042281;28;20041;-72
2021/03/21 09:10:39;;;;;;;36.40;6.53;;;7.40;75.40;;;;;;5027805;28;20033;-75
2021/03/21 09:13:04;;;;;;;33.30;6.13;;;7.40;76.40;;;;;;5044273;28;20107;-74
2021/03/21 09:15:30;;;;;;;31.30;5.63;;;7.30;77.00;;;;;;5040382;28;20465;-80
2021/03/21 09:18:18;;;;;;;29.07;5.37;;;7.30;78.40;;;;;;5043595;28;20226;-79
2021/03/21 09:20:52;;;;;;;32.67;5.57;;;7.40;75.10;;;;;;5021117;28;20064;-79
2021/03/21 09:23:59;;;;;;;30.03;4.93;;;7.30;76.20;;;;;;5021336;28;20283;-78
2021/03/21 09:26:27;;;;;;;31.30;5.70;;;7.40;76.40;;;;;;4958722;28;20177;-82
2021/03/21 09:29:07;;;;;;;29.73;5.40;;;7.30;76.80;;;;;;5012563;28;20844;-81
2021/03/21 09:31:34;;;;;;;31.67;5.68;;;7.40;76.50;;;;;;5040223;28;20045;-79
2021/03/21 09:34:10;;;;;;;29.00;5.40;;;7.50;75.80;;;;;;5024744;28;20555;-79
2021/03/21 09:36:51;;;;;;;30.40;5.93;;;7.50;74.90;;;;;;5037871;28;20120;-73
2021/03/21 09:39:21;;;;;;;27.63;5.73;;;7.60;74.40;;;;;;5040071;28;20484;-74
2021/03/21 09:41:49;;;;;;;27.67;5.30;;;7.70;74.20;;;;;;5055183;28;20056;-74
2021/03/21 09:44:21;;;;;;;33.13;6.17;;;7.70;74.00;;;;;;5060127;28;20039;-73
2021/03/21 09:46:58;;;;;;;25.50;5.43;;;7.70;74.50;;;;;;5061812;28;20047;-73
2021/03/21 09:49:46;;;;;;;31.37;5.50;;;7.70;74.50;;;;;;5038347;28;20141;-73
2021/03/21 09:52:24;;;;;;;29.77;5.37;;;7.60;74.90;;;;;;5059800;28;20700;-72
2021/03/21 09:54:57;;;;;;;33.50;6.83;;;7.60;76.70;;;;;;5060357;28;20498;-73
2021/03/21 09:57:29;;;;;;;32.30;4.97;;;7.60;74.30;;;;;;5061772;28;20047;-74
2021/03/21 10:00:09;;;;;;;33.73;6.07;;;7.50;76.10;;;;;;5060933;28;20048;-74
2021/03/21 10:02:48;;;;;;;36.85;5.63;;;7.50;76.30;;;;;;5040241;28;20055;-74
2021/03/21 10:05:32;;;;;;;26.40;5.23;;;7.60;74.70;;;;;;5048747;28;20044;-74
2021/03/21 10:08:20;;;;;;;35.53;6.07;;;7.60;74.80;;;;;;5060454;28;20384;-74
2021/03/21 10:10:56;;;;;;;31.80;5.37;;;7.70;75.10;;;;;;5039356;28;20048;-73
2021/03/21 10:13:35;;;;;;;34.30;6.13;;;7.70;74.50;;;;;;5061957;28;20033;-74
2021/03/21 10:16:20;;;;;;;27.37;5.03;;;7.70;74.00;;;;;;5059790;28;20124;-74
2021/03/21 10:18:53;;;;;;;28.87;5.33;;;7.70;74.30;;;;;;5035459;28;20199;-75
2021/03/21 10:21:23;;;;;;;25.33;6.73;;;7.70;75.40;;;;;;5040726;28;20048;-74
2021/03/21 10:23:49;;;;;;;33.87;5.40;;;7.70;72.10;;;;;;5062870;28;20119;-81
2021/03/21 10:26:21;;;;;;;35.37;5.47;;;7.70;72.40;;;;;;5050770;28;20090;-79
2021/03/21 10:28:51;;;;;;;40.60;6.90;;;7.70;73.30;;;;;;5034543;28;20479;-80
2021/03/21 10:31:27;;;;;;;29.73;5.68;;;7.80;70.10;;;;;;5047622;28;20032;-81
2021/03/21 10:34:02;;;;;;;28.20;5.80;;;7.70;71.60;;;;;;5064168;28;20037;-79
2021/03/21 10:36:47;;;;;;;26.43;5.50;;;7.80;72.40;;;;;;5063320;28;20040;-80
2021/03/21 10:39:24;;;;;;;38.63;6.53;;;7.90;71.30;;;;;;5046048;28;20515;-79
2021/03/21 10:42:14;;;;;;;37.53;6.60;;;7.90;72.60;;;;;;5052940;28;20438;-80
2021/03/21 10:44:41;;;;;;;35.83;5.80;;;8.00;71.40;;;;;;5042252;28;20045;-82
2021/03/21 10:47:30;;;;;;;32.00;5.77;;;8.10;70.60;;;;;;5032920;28;20295;-81
2021/03/21 10:50:34;;;;;;;34.33;6.50;;;8.00;71.10;;;;;;5043717;28;20106;-80
2021/03/21 10:53:32;;;;;;;34.67;6.17;;;7.90;70.70;;;;;;5042365;28;20166;-79
2021/03/21 10:56:16;;;;;;;27.00;5.77;;;7.90;70.90;;;;;;5042823;28;20061;-78
2021/03/21 10:58:45;;;;;;;29.67;5.63;;;7.90;72.00;;;;;;5042457;28;20094;-78
2021/03/21 11:01:20;;;;;;;35.50;6.00;;;7.90;72.50;;;;;;5035558;28;20078;-81
2021/03/21 11:03:57;;;;;;;27.73;6.07;;;8.00;71.70;;;;;;5040090;28;20033;-82
2021/03/21 11:06:26;;;;;;;29.53;7.10;;;7.90;70.80;;;;;;5042372;28;20061;-80
2021/03/21 11:08:52;;;;;;;26.83;6.13;;;7.90;71.80;;;;;;5040716;28;20512;-82
2021/03/21 11:11:24;;;;;;;29.80;6.70;;;7.90;69.70;;;;;;5009487;28;20055;-83
2021/03/21 11:13:51;;;;;;;35.90;6.40;;;7.90;69.70;;;;;;5045365;28;20087;-81
2021/03/21 11:16:21;;;;;;;37.70;6.97;;;7.70;71.60;;;;;;5044433;28;20091;-81
2021/03/21 11:18:53;;;;;;;28.47;6.13;;;7.70;71.10;;;;;;5041580;28;20120;-80
2021/03/21 11:21:24;;;;;;;31.70;5.90;;;7.70;70.50;;;;;;5042341;28;20374;-80
2021/03/21 11:24:27;;;;;;;27.60;6.13;;;7.80;70.20;;;;;;5028397;28;20047;-81
2021/03/21 11:26:54;;;;;;;31.40;6.85;;;7.80;70.00;;;;;;5037957;28;20064;-79
2021/03/21 11:29:29;;;;;;;28.57;6.17;;;7.70;70.90;;;;;;5044511;28;20029;-80
2021/03/21 11:32:01;;;;;;;36.17;5.57;;;7.70;71.50;;;;;;5055189;28;20036;-82
2021/03/21 11:34:34;;;;;;;28.03;5.87;;;7.70;72.90;;;;;;5028116;28;20550;-80
2021/03/21 11:37:19;;;;;;;36.07;6.93;;;7.80;71.70;;;;;;5042060;28;20037;-80
2021/03/21 11:39:51;;;;;;;32.10;5.73;;;7.90;70.30;;;;;;5042285;28;20526;-79
2021/03/21 11:42:25;;;;;;;30.30;6.93;;;7.80;71.90;;;;;;5056862;28;20812;-80
2021/03/21 11:44:53;;;;;;;36.87;6.00;;;7.80;72.60;;;;;;5036538;28;20450;-80
2021/03/21 11:47:26;;;;;;;29.97;5.37;;;7.90;71.40;;;;;;5062371;28;20033;-80
2021/03/21 11:49:52;;;;;;;40.33;6.23;;;7.90;70.30;;;;;;5061277;28;20040;-80
2021/03/21 11:52:19;;;;;;;37.10;6.17;;;8.00;69.30;;;;;;5040792;28;20036;-79
2021/03/21 11:54:49;;;;;;;32.03;4.73;;;8.00;70.80;;;;;;5027523;28;20054;-81
2021/03/21 11:57:28;;;;;;;28.73;5.53;;;7.90;70.70;;;;;;5011625;28;20082;-83
2021/03/21 12:00:12;;;;;;;33.37;5.67;;;8.00;69.10;;;;;;5043316;28;20295;-80
2021/03/21 12:02:57;;;;;;;37.30;5.83;;;8.00;68.30;;;;;;5037235;28;20587;-79
2021/03/21 12:05:30;;;;;;;25.37;5.40;;;8.00;69.00;;;;;;5061714;28;20052;-83
2021/03/21 12:08:21;;;;;;;32.93;5.57;;;8.00;69.30;;;;;;5044671;28;20041;-81
2021/03/21 12:10:49;;;;;;;31.97;6.57;;;8.00;69.30;;;;;;5061755;28;20044;-80
2021/03/21 12:13:34;;;;;;;32.80;5.50;;;8.10;68.00;;;;;;5045387;28;20055;-80
2021/03/21 12:16:01;;;;;;;30.53;6.07;;;8.00;69.50;;;;;;5044995;28;20048;-80
2021/03/21 12:18:29;;;;;;;28.40;5.43;;;8.10;68.40;;;;;;5061499;28;20399;-78
2021/03/21 12:20:59;;;;;;;27.93;4.90;;;8.10;69.70;;;;;;5042249;28;20048;-80
2021/03/21 12:23:35;;;;;;;34.37;6.40;;;8.20;70.60;;;;;;5061982;28;20553;-78
2021/03/21 12:26:19;;;;;;;28.43;4.57;;;8.30;68.80;;;;;;5053774;28;20487;-79
2021/03/21 12:28:56;;;;;;;32.73;6.57;;;8.30;70.00;;;;;;5064056;28;20033;-79
2021/03/21 12:31:38;;;;;;;24.87;5.43;;;8.30;68.50;;;;;;5060373;28;20044;-78
2021/03/21 12:34:33;;;;;;;30.97;4.80;;;8.30;67.30;;;;;;5053241;28;20099;-79
2021/03/21 12:37:02;;;;;;;27.27;5.23;;;8.20;68.80;;;;;;5060420;28;20049;-81
2021/03/21 12:39:32;;;;;;;29.73;5.57;;;8.30;66.30;;;;;;5043209;28;20047;-73
2021/03/21 12:41:59;;;;;;;28.77;5.47;;;8.30;67.90;;;;;;5041095;28;20052;-81
2021/03/21 12:44:24;;;;;;;30.07;5.73;;;8.30;68.20;;;;;;5061891;28;20046;-80
2021/03/21 12:46:53;;;;;;;28.10;5.80;;;8.50;67.30;;;;;;5043601;28;20033;-80
2021/03/21 12:49:36;;;;;;;25.90;5.50;;;8.40;69.10;;;;;;5041609;28;20052;-79
2021/03/21 12:52:15;;;;;;;32.33;7.57;;;8.60;65.80;;;;;;5037538;28;20040;-80
2021/03/21 12:54:43;;;;;;;25.47;4.83;;;8.50;66.60;;;;;;5063630;28;20032;-80
2021/03/21 12:57:12;;;;;;;28.57;5.20;;;8.30;68.40;;;;;;5063421;28;20047;-78
2021/03/21 12:59:41;;;;;;;29.77;5.20;;;8.30;67.40;;;;;;5061345;28;20665;-81
2021/03/21 13:02:18;;;;;;;29.40;5.57;;;8.20;68.30;;;;;;5042960;28;20055;-83
2021/03/21 13:04:44;;;;;;;30.30;5.77;;;8.20;67.80;;;;;;5062210;28;20094;-79
2021/03/21 13:07:11;;;;;;;36.47;6.43;;;8.20;68.60;;;;;;5062966;28;20495;-79
2021/03/21 13:09:39;;;;;;;28.67;5.93;;;8.30;66.80;;;;;;5010151;28;20029;-78
2021/03/21 13:12:06;;;;;;;26.17;5.13;;;8.20;67.70;;;;;;5044452;28;20052;-78
2021/03/21 13:14:32;;;;;;;30.17;5.00;;;8.10;68.10;;;;;;5045361;28;20033;-80
2021/03/21 13:16:58;;;;;;;33.57;5.57;;;8.10;68.70;;;;;;5062176;28;20619;-79
2021/03/21 13:19:23;;;;;;;28.63;4.73;;;8.00;69.40;;;;;;5042882;28;20329;-79
2021/03/21 13:21:49;;;;;;;29.30;6.30;;;8.00;70.40;;;;;;5037329;28;20052;-76
2021/03/21 13:24:15;;;;;;;29.30;6.07;;;8.00;71.20;;;;;;5060248;28;20353;-80
2021/03/21 13:26:41;;;;;;;34.20;6.00;;;8.00;70.40;;;;;;5042521;28;20043;-78
2021/03/21 13:29:07;;;;;;;28.03;5.20;;;8.00;70.40;;;;;;5053040;28;20036;-79
2021/03/21 13:31:33;;;;;;;27.43;5.67;;;8.00;69.80;;;;;;5036160;28;20037;-80
2021/03/21 13:33:59;;;;;;;31.20;5.43;;;7.90;71.20;;;;;;5062460;28;20577;-78